Time;durP1;ratioP1;P1;durP2;ratioP2;P2;SDS_P1;SDS_P2;PMS_P1;PMS_P2;Temp;Humidity;BMP_temperature;BMP_pressure;BME280_temperature;BME280_humidity;BME280_pressure;Samples;Min_cycle;Max_cycle;Signal;HPM_P1;HPM_P2
2024/03/11 00:00:05;;;;;;;0.30;0.20;;;;;;;9.66;100.00;98416.81;5055186;28;20517;-52
2024/03/11 00:02:31;;;;;;;0.30;0.20;;;;;;;9.56;100.00;98422.69;5055706;28;20559;-52
2024/03/11 00:04:58;;;;;;;0.30;0.20;;;;;;;9.50;100.00;98426.53;5055547;28;20446;-51
2024/03/11 00:07:30;;;;;;;0.30;0.20;;;;;;;9.57;100.00;98424.41;5055392;28;20533;-51
2024/03/11 00:09:56;;;;;;;0.40;0.30;;;;;;;9.53;100.00;98417.56;5037808;28;20498;-51
2024/03/11 00:12:23;;;;;;;0.30;0.20;;;;;;;9.54;100.00;98417.47;5055497;28;20508;-51
2024/03/11 00:14:51;;;;;;;0.30;0.20;;;;;;;9.52;100.00;98424.66;5049624;28;20923;-52
2024/03/11 00:17:21;;;;;;;0.30;0.20;;;;;;;9.57;100.00;98422.59;5055160;28;20454;-51
2024/03/11 00:19:48;;;;;;;0.30;0.20;;;;;;;9.61;100.00;98439.22;5055203;28;20477;-52
2024/03/11 00:22:15;;;;;;;0.30;0.20;;;;;;;9.66;100.00;98438.03;5055315;28;20526;-51
2024/03/11 00:24:41;;;;;;;0.30;0.20;;;;;;;9.62;100.00;98449.75;5055341;28;20442;-52
2024/03/11 00:27:08;;;;;;;0.30;0.20;;;;;;;9.61;100.00;98450.69;5055105;28;20453;-51
2024/03/11 00:29:35;;;;;;;0.30;0.20;;;;;;;9.67;100.00;98460.09;5054635;28;20474;-51
2024/03/11 00:32:07;;;;;;;0.30;0.20;;;;;;;9.65;100.00;98461.97;5054970;28;20469;-52
2024/03/11 00:34:34;;;;;;;0.30;0.20;;;;;;;9.61;100.00;98466.59;5054956;28;20521;-51
2024/03/11 00:37:01;;;;;;;0.30;0.20;;;;;;;9.61;100.00;98468.41;5054977;28;20531;-51
2024/03/11 00:39:28;;;;;;;0.30;0.20;;;;;;;9.61;100.00;98465.75;5054664;28;20955;-52
2024/03/11 00:41:55;;;;;;;0.30;0.20;;;;;;;9.62;100.00;98464.81;5055005;28;20497;-51
2024/03/11 00:44:21;;;;;;;0.30;0.20;;;;;;;9.67;100.00;98462.75;5052031;28;20451;-51
2024/03/11 00:46:49;;;;;;;0.30;0.20;;;;;;;9.64;100.00;98469.09;5054564;28;20817;-51
2024/03/11 00:49:17;;;;;;;0.30;0.20;;;;;;;9.62;100.00;98475.41;5051861;28;20558;-51
2024/03/11 00:51:44;;;;;;;0.30;0.20;;;;;;;9.60;100.00;98480.81;5054799;28;20459;-51
2024/03/11 00:54:11;;;;;;;0.30;0.20;;;;;;;9.59;100.00;98488.81;5054825;28;20454;-50
2024/03/11 00:56:38;;;;;;;0.30;0.20;;;;;;;9.58;100.00;98484.47;5053121;28;20493;-51
2024/03/11 00:59:05;;;;;;;0.30;0.20;;;;;;;9.53;100.00;98476.75;5054297;28;20588;-51
2024/03/11 01:01:32;;;;;;;0.30;0.20;;;;;;;9.53;100.00;98466.16;5054585;28;20840;-50
2024/03/11 01:03:58;;;;;;;0.30;0.20;;;;;;;9.51;100.00;98468.03;5054676;28;20533;-51
2024/03/11 01:06:28;;;;;;;0.30;0.20;;;;;;;9.53;100.00;98468.81;5054655;28;20918;-50
2024/03/11 01:08:54;;;;;;;0.30;0.20;;;;;;;9.55;100.00;98476.69;5054242;28;20467;-51
2024/03/11 01:11:22;;;;;;;0.30;0.20;;;;;;;9.51;100.00;98473.34;5054526;28;20991;-51
2024/03/11 01:13:49;;;;;;;0.30;0.20;;;;;;;9.55;100.00;98480.19;5054288;28;20836;-51
2024/03/11 01:16:15;;;;;;;0.30;0.20;;;;;;;9.52;100.00;98490.09;5054370;28;20490;-53
2024/03/11 01:18:42;;;;;;;0.30;0.20;;;;;;;9.53;100.00;98492.66;5054282;28;20494;-52
2024/03/11 01:21:09;;;;;;;0.30;0.20;;;;;;;9.57;100.00;98491.56;5054055;28;21003;-51
2024/03/11 01:23:36;;;;;;;0.30;0.20;;;;;;;9.47;100.00;98493.00;5053349;28;20459;-52
2024/03/11 01:26:06;;;;;;;0.30;0.20;;;;;;;9.57;100.00;98501.31;5053985;28;20438;-52
2024/03/11 01:28:33;;;;;;;0.30;0.20;;;;;;;9.46;100.00;98494.81;5053075;28;20455;-52
2024/03/11 01:31:00;;;;;;;0.30;0.20;;;;;;;9.45;100.00;98501.03;5054175;28;20542;-52
2024/03/11 01:33:27;;;;;;;0.30;0.20;;;;;;;9.43;100.00;98505.56;5054076;28;20454;-52
2024/03/11 01:35:54;;;;;;;0.30;0.20;;;;;;;9.43;100.00;98507.34;5053847;28;21058;-52
2024/03/11 01:38:21;;;;;;;0.30;0.20;;;;;;;9.56;100.00;98505.75;5053689;28;20451;-52
2024/03/11 01:40:47;;;;;;;0.30;0.20;;;;;;;9.52;100.00;98512.19;5050757;28;20462;-52
2024/03/11 01:43:17;;;;;;;0.30;0.20;;;;;;;9.46;100.00;98513.38;5053542;28;20446;-52
2024/03/11 01:45:43;;;;;;;0.30;0.17;;;;;;;9.46;100.00;98513.38;5053988;28;20565;-52
2024/03/11 01:48:10;;;;;;;0.30;0.20;;;;;;;9.46;100.00;98516.03;5053604;28;20529;-51
2024/03/11 01:50:38;;;;;;;0.30;0.20;;;;;;;9.42;100.00;98518.91;5053383;28;21036;-52
2024/03/11 01:53:05;;;;;;;0.30;0.20;;;;;;;9.42;100.00;98514.44;5053526;28;20458;-52
2024/03/11 01:55:37;;;;;;;0.30;0.20;;;;;;;9.41;100.00;98517.19;5052621;28;20497;-51
2024/03/11 01:58:06;;;;;;;0.30;0.20;;;;;;;9.30;100.00;98523.03;5041024;28;20477;-52
2024/03/11 02:00:35;;;;;;;0.30;0.20;;;;;;;9.43;100.00;98523.25;5053013;28;21052;-52
2024/03/11 02:03:01;;;;;;;0.30;0.20;;;;;;;9.57;100.00;98526.03;5053349;28;20451;-52
2024/03/11 02:05:28;;;;;;;0.30;0.20;;;;;;;9.52;100.00;98524.59;5053241;28;20557;-50
2024/03/11 02:08:01;;;;;;;0.30;0.20;;;;;;;9.38;100.00;98523.50;5052702;28;20490;-50
2024/03/11 02:10:29;;;;;;;0.30;0.20;;;;;;;9.41;100.00;98523.34;5053451;28;20474;-52
2024/03/11 02:12:58;;;;;;;0.30;0.20;;;;;;;9.39;100.00;98519.06;5053317;28;20451;-52
2024/03/11 02:15:26;;;;;;;0.30;0.20;;;;;;;9.32;100.00;98528.25;5035431;28;20494;-52
2024/03/11 02:17:55;;;;;;;0.30;0.20;;;;;;;9.32;100.00;98528.25;5053050;28;20990;-51
2024/03/11 02:20:22;;;;;;;0.30;0.20;;;;;;;9.32;100.00;98529.16;5051209;28;20880;-52
2024/03/11 02:22:50;;;;;;;0.30;0.20;;;;;;;9.26;100.00;98523.28;5052483;28;20450;-51
2024/03/11 02:25:21;;;;;;;0.30;0.20;;;;;;;9.28;100.00;98519.63;5053167;28;20447;-52
2024/03/11 02:27:49;;;;;;;0.30;0.20;;;;;;;9.24;100.00;98518.06;5053256;28;20526;-52
2024/03/11 02:30:16;;;;;;;0.30;0.20;;;;;;;9.23;100.00;98510.19;5035053;28;20879;-51
2024/03/11 02:32:44;;;;;;;0.30;0.20;;;;;;;9.17;100.00;98516.66;5047513;28;20533;-52
2024/03/11 02:35:11;;;;;;;0.30;0.20;;;;;;;9.30;100.00;98517.75;5052484;28;20490;-52
2024/03/11 02:37:45;;;;;;;0.30;0.20;;;;;;;9.26;100.00;98518.00;5048771;28;20494;-51
2024/03/11 02:40:17;;;;;;;0.30;0.20;;;;;;;9.26;100.00;98510.88;5044807;28;20463;-52
2024/03/11 02:42:44;;;;;;;0.30;0.20;;;;;;;9.24;100.00;98509.25;5052930;28;20501;-52
2024/03/11 02:45:13;;;;;;;0.30;0.20;;;;;;;9.26;100.00;98512.69;5052590;28;20439;-52
2024/03/11 02:47:39;;;;;;;0.30;0.20;;;;;;;9.20;100.00;98513.88;5052619;28;20970;-50
2024/03/11 02:50:09;;;;;;;0.30;0.20;;;;;;;9.20;100.00;98511.22;5048161;28;21152;-52
2024/03/11 02:52:37;;;;;;;0.30;0.20;;;;;;;9.21;100.00;98515.59;5052460;28;20455;-52
2024/03/11 02:55:05;;;;;;;0.30;0.20;;;;;;;9.15;100.00;98522.03;5052366;28;20450;-51
2024/03/11 02:57:32;;;;;;;0.30;0.20;;;;;;;9.18;100.00;98523.66;5052344;28;20895;-51
2024/03/11 02:59:59;;;;;;;0.30;0.20;;;;;;;9.24;100.00;98514.56;5051733;28;20852;-51
2024/03/11 03:02:26;;;;;;;0.30;0.20;;;;;;;9.26;100.00;98523.28;5052113;28;20457;-50
2024/03/11 03:04:55;;;;;;;0.30;0.20;;;;;;;9.27;100.00;98523.22;5052420;28;20450;-51
2024/03/11 03:07:25;;;;;;;0.30;0.20;;;;;;;9.23;100.00;98534.06;5049353;28;20451;-50
2024/03/11 03:09:52;;;;;;;0.30;0.20;;;;;;;9.30;100.00;98535.44;5052250;28;20470;-51
2024/03/11 03:12:19;;;;;;;0.30;0.20;;;;;;;9.31;100.00;98535.34;5051662;28;20443;-52
2024/03/11 03:14:46;;;;;;;0.30;0.20;;;;;;;9.27;100.00;98533.81;5042356;28;20460;-51
2024/03/11 03:17:13;;;;;;;0.30;0.20;;;;;;;9.23;100.00;98536.72;5049152;28;20552;-51
2024/03/11 03:19:39;;;;;;;0.30;0.20;;;;;;;9.24;100.00;98541.06;5052204;28;20473;-51
2024/03/11 03:22:07;;;;;;;0.30;0.20;;;;;;;9.34;100.00;98539.69;5052104;28;20475;-52
2024/03/11 03:24:34;;;;;;;0.30;0.20;;;;;;;9.46;100.00;98539.03;5047127;28;20465;-51
2024/03/11 03:27:00;;;;;;;0.30;0.20;;;;;;;9.43;100.00;98533.88;5050206;28;20524;-51
2024/03/11 03:29:27;;;;;;;0.30;0.20;;;;;;;9.31;100.00;98535.34;5045186;28;20475;-52
2024/03/11 03:31:53;;;;;;;0.30;0.20;;;;;;;9.28;100.00;98539.97;5049440;28;20456;-50
2024/03/11 03:34:20;;;;;;;0.30;0.20;;;;;;;9.31;100.00;98540.66;5051957;28;20935;-53
2024/03/11 03:36:46;;;;;;;0.30;0.20;;;;;;;9.40;100.00;98544.66;5051931;28;20486;-51
2024/03/11 03:39:13;;;;;;;0.30;0.20;;;;;;;9.41;100.00;98541.91;5051833;28;20508;-52
2024/03/11 03:41:40;;;;;;;0.30;0.20;;;;;;;9.31;100.00;98543.31;5051546;28;20501;-51
2024/03/11 03:44:06;;;;;;;0.30;0.20;;;;;;;9.40;100.00;98552.59;5051838;28;20446;-52
2024/03/11 03:46:33;;;;;;;0.30;0.20;;;;;;;9.38;100.00;98549.16;5051938;28;20479;-53
2024/03/11 03:48:59;;;;;;;0.30;0.20;;;;;;;9.39;100.00;98553.53;5051688;28;20469;-52
2024/03/11 03:51:26;;;;;;;0.30;0.20;;;;;;;9.43;100.00;98552.44;5046994;28;20953;-53
2024/03/11 03:53:53;;;;;;;0.30;0.20;;;;;;;9.34;100.00;98556.44;5051232;28;20465;-53
2024/03/11 03:56:20;;;;;;;0.30;0.20;;;;;;;9.43;100.00;98555.09;5050015;28;21015;-52
2024/03/11 03:58:46;;;;;;;0.30;0.20;;;;;;;9.46;100.00;98560.25;5043951;28;20505;-47
2024/03/11 04:01:13;;;;;;;0.30;0.20;;;;;;;9.49;100.00;98558.28;5048438;28;20451;-48
2024/03/11 04:03:39;;;;;;;0.30;0.20;;;;;;;9.56;100.00;98563.25;5051825;28;20554;-47
2024/03/11 04:06:06;;;;;;;0.30;0.20;;;;;;;9.60;100.00;98560.38;5042758;28;20545;-47
2024/03/11 04:08:32;;;;;;;0.30;0.20;;;;;;;9.59;100.00;98571.06;5050478;28;20458;-47
2024/03/11 04:10:59;;;;;;;0.30;0.20;;;;;;;9.61;100.00;98574.50;5050182;28;20529;-48
2024/03/11 04:13:28;;;;;;;0.30;0.20;;;;;;;9.59;100.00;98577.22;5051762;28;20482;-47
2024/03/11 04:15:56;;;;;;;0.30;0.20;;;;;;;9.47;100.00;98576.09;5046365;28;20577;-47
2024/03/11 04:18:24;;;;;;;0.30;0.20;;;;;;;9.48;100.00;98579.59;5051284;28;20446;-50
2024/03/11 04:20:51;;;;;;;0.30;0.20;;;;;;;9.34;100.00;98580.31;5038501;28;20435;-47
2024/03/11 04:23:18;;;;;;;0.30;0.20;;;;;;;9.33;100.00;98570.63;5051399;28;20457;-48
2024/03/11 04:25:45;;;;;;;0.30;0.20;;;;;;;9.25;100.00;98577.25;5052813;28;20529;-47
2024/03/11 04:28:13;;;;;;;0.30;0.20;;;;;;;9.26;100.00;98577.16;5055444;28;20496;-48
2024/03/11 04:30:39;;;;;;;0.30;0.20;;;;;;;9.40;100.00;98581.78;5055208;28;20557;-50
2024/03/11 04:33:06;;;;;;;0.30;0.20;;;;;;;9.28;100.00;98580.59;5055090;28;20450;-47
2024/03/11 04:35:35;;;;;;;0.30;0.20;;;;;;;9.37;100.00;98585.44;5054968;28;20942;-47
2024/03/11 04:38:04;;;;;;;0.30;0.20;;;;;;;9.48;100.00;98582.25;5054782;28;20451;-48
2024/03/11 04:40:33;;;;;;;0.30;0.20;;;;;;;9.44;100.00;98584.16;5060718;28;20467;-47
2024/03/11 04:43:00;;;;;;;0.30;0.20;;;;;;;9.49;100.00;98587.47;5054902;28;20486;-48
2024/03/11 04:45:27;;;;;;;0.30;0.20;;;;;;;9.42;100.00;98594.00;5055007;28;20450;-48
2024/03/11 04:47:59;;;;;;;0.30;0.20;;;;;;;9.34;100.00;98592.69;5054783;28;20455;-48
2024/03/11 04:50:29;;;;;;;0.30;0.20;;;;;;;9.41;100.00;98600.25;5054534;28;20498;-47
2024/03/11 04:53:06;;;;;;;0.30;0.20;;;;;;;9.34;100.00;98601.50;5054844;28;20451;-47
2024/03/11 04:55:34;;;;;;;0.30;0.20;;;;;;;9.43;100.00;98600.16;5054691;28;20442;-47
2024/03/11 04:58:01;;;;;;;0.30;0.20;;;;;;;9.61;100.00;98607.19;5054499;28;20958;-49
2024/03/11 05:00:28;;;;;;;0.30;0.20;;;;;;;9.53;100.00;98600.56;5054361;28;20474;-47
2024/03/11 05:02:56;;;;;;;0.30;0.20;;;;;;;9.69;100.00;98604.13;5054432;28;20447;-47
2024/03/11 05:05:24;;;;;;;0.30;0.20;;;;;;;9.59;100.00;98609.03;5054810;28;20451;-48
2024/03/11 05:07:52;;;;;;;0.30;0.20;;;;;;;9.70;100.00;98600.53;5054460;28;20974;-48
2024/03/11 05:10:19;;;;;;;0.30;0.20;;;;;;;9.50;100.00;98602.44;5054027;28;21027;-48
2024/03/11 05:12:47;;;;;;;0.30;0.20;;;;;;;9.54;100.00;98613.75;5054240;28;20947;-48
2024/03/11 05:15:16;;;;;;;0.30;0.20;;;;;;;9.58;100.00;98611.78;5054175;28;20451;-48
2024/03/11 05:17:43;;;;;;;0.30;0.20;;;;;;;9.70;100.00;98613.81;5054047;28;20515;-47
2024/03/11 05:20:14;;;;;;;0.30;0.20;;;;;;;9.66;100.00;98609.59;5054134;28;20525;-47
2024/03/11 05:22:42;;;;;;;0.30;0.20;;;;;;;9.66;100.00;98613.13;5054209;28;20447;-47
2024/03/11 05:25:09;;;;;;;0.30;0.20;;;;;;;9.69;100.00;98614.75;5053933;28;20534;-47
2024/03/11 05:27:36;;;;;;;0.30;0.20;;;;;;;9.72;100.00;98615.44;5054142;28;20533;-47
2024/03/11 05:30:04;;;;;;;0.30;0.20;;;;;;;9.73;100.00;98619.84;5053674;28;20926;-49
2024/03/11 05:32:31;;;;;;;0.30;0.20;;;;;;;9.71;100.00;98613.72;5053859;28;20973;-47
2024/03/11 05:34:58;;;;;;;0.30;0.20;;;;;;;9.70;100.00;98624.41;5053825;28;20546;-47
2024/03/11 05:37:26;;;;;;;0.30;0.20;;;;;;;9.93;100.00;98624.06;5036024;28;20502;-47
2024/03/11 05:39:54;;;;;;;0.33;0.23;;;;;;;9.85;100.00;98628.91;5053515;28;21035;-48
2024/03/11 05:42:21;;;;;;;0.30;0.20;;;;;;;9.76;100.00;98632.06;5053663;28;20526;-47
2024/03/11 05:44:49;;;;;;;0.30;0.20;;;;;;;9.86;100.00;98633.28;5053539;28;20605;-47
2024/03/11 05:47:15;;;;;;;0.30;0.20;;;;;;;10.06;100.00;98633.09;5053792;28;20455;-47
2024/03/11 05:49:42;;;;;;;0.30;0.20;;;;;;;10.06;100.00;98640.22;5053379;28;20502;-47
2024/03/11 05:52:09;;;;;;;0.30;0.20;;;;;;;10.06;100.00;98640.22;5053821;28;20453;-47
2024/03/11 05:54:38;;;;;;;0.30;0.20;;;;;;;9.82;100.00;98642.34;5053484;28;20451;-48
2024/03/11 05:57:05;;;;;;;0.30;0.20;;;;;;;10.06;100.00;98651.69;5053238;28;20483;-49
2024/03/11 05:59:32;;;;;;;0.30;0.20;;;;;;;9.83;100.00;98645.88;5053094;28;20561;-48
2024/03/11 06:01:59;;;;;;;0.30;0.20;;;;;;;9.80;100.00;98653.06;5053594;28;20457;-48
2024/03/11 06:04:25;;;;;;;0.30;0.20;;;;;;;9.82;100.00;98649.47;5053353;28;20482;-48
2024/03/11 06:06:53;;;;;;;0.30;0.20;;;;;;;9.86;100.00;98654.50;5053223;28;20478;-48
2024/03/11 06:09:20;;;;;;;0.30;0.20;;;;;;;9.93;100.00;98660.38;5053038;28;20467;-48
2024/03/11 06:11:48;;;;;;;0.30;0.20;;;;;;;9.92;100.00;98663.97;5053044;28;20952;-48
2024/03/11 06:14:16;;;;;;;0.30;0.20;;;;;;;9.88;100.00;98657.97;5053130;28;20533;-48
2024/03/11 06:16:43;;;;;;;0.30;0.20;;;;;;;9.82;100.00;98668.03;5053146;28;20497;-48
2024/03/11 06:19:11;;;;;;;0.30;0.20;;;;;;;9.80;100.00;98668.97;5052960;28;20558;-48
2024/03/11 06:21:42;;;;;;;0.30;0.20;;;;;;;9.96;100.00;98674.34;5053002;28;20799;-48
2024/03/11 06:24:09;;;;;;;0.30;0.20;;;;;;;9.76;100.00;98683.34;5039945;28;20443;-49
2024/03/11 06:26:37;;;;;;;0.30;0.20;;;;;;;9.83;100.00;98686.53;5052666;28;20451;-48
2024/03/11 06:29:06;;;;;;;0.30;0.20;;;;;;;9.87;100.00;98693.41;5053064;28;20470;-48
2024/03/11 06:31:33;;;;;;;0.30;0.20;;;;;;;9.92;100.00;98688.72;5052849;28;20516;-49
2024/03/11 06:34:02;;;;;;;0.30;0.20;;;;;;;9.93;100.00;98694.88;5052971;28;20451;-49
2024/03/11 06:36:29;;;;;;;0.30;0.20;;;;;;;9.92;100.00;98695.81;5052491;28;20494;-48
2024/03/11 06:38:58;;;;;;;0.30;0.20;;;;;;;10.01;100.00;98701.53;5052406;28;21082;-49
2024/03/11 06:41:25;;;;;;;0.30;0.20;;;;;;;9.91;100.00;98702.94;5052722;28;20546;-49
2024/03/11 06:43:52;;;;;;;0.30;0.20;;;;;;;9.91;100.00;98702.06;5053078;28;20451;-48
2024/03/11 06:46:19;;;;;;;0.30;0.20;;;;;;;10.06;100.00;98706.59;5052685;28;20449;-48
2024/03/11 06:48:45;;;;;;;0.30;0.20;;;;;;;10.02;100.00;98708.53;5051797;28;20467;-48
2024/03/11 06:51:12;;;;;;;0.30;0.20;;;;;;;10.19;100.00;98709.47;5052723;28;20857;-50
2024/03/11 06:53:39;;;;;;;0.30;0.20;;;;;;;10.06;100.00;98719.84;5052785;28;20501;-48
2024/03/11 06:56:07;;;;;;;0.30;0.20;;;;;;;10.23;100.00;98716.34;5052238;28;20943;-48
2024/03/11 06:58:34;;;;;;;0.30;0.20;;;;;;;10.10;100.00;98721.41;5052299;28;20498;-48
2024/03/11 07:01:00;;;;;;;0.30;0.20;;;;;;;10.09;100.00;98723.19;5052463;28;20710;-49
2024/03/11 07:03:29;;;;;;;0.30;0.20;;;;;;;10.23;100.00;98719.84;5052357;28;20970;-48
2024/03/11 07:05:59;;;;;;;0.30;0.20;;;;;;;9.90;100.00;98734.84;5052106;28;20475;-48
2024/03/11 07:08:27;;;;;;;0.30;0.20;;;;;;;9.98;100.00;98737.97;5034665;28;20851;-48
2024/03/11 07:10:55;;;;;;;0.30;0.20;;;;;;;10.09;100.00;98736.47;5052625;28;20447;-48
2024/03/11 07:13:21;;;;;;;0.30;0.20;;;;;;;10.11;100.00;98741.69;5052232;28;20447;-49
2024/03/11 07:15:48;;;;;;;0.30;0.20;;;;;;;10.20;100.00;98748.34;5052095;28;20944;-48
2024/03/11 07:18:17;;;;;;;0.30;0.20;;;;;;;10.15;100.00;98753.91;5052095;28;20491;-49
2024/03/11 07:20:45;;;;;;;0.30;0.20;;;;;;;10.22;100.00;98750.00;5052220;28;20451;-48
2024/03/11 07:23:12;;;;;;;0.30;0.20;;;;;;;10.30;100.00;98760.25;5052418;28;20457;-50
2024/03/11 07:25:39;;;;;;;0.30;0.20;;;;;;;10.06;100.00;98762.34;5052067;28;20458;-48
2024/03/11 07:28:06;;;;;;;0.30;0.20;;;;;;;10.27;100.00;98763.91;5052033;28;20443;-50
2024/03/11 07:30:33;;;;;;;0.30;0.20;;;;;;;10.10;100.00;98770.03;5051928;28;20995;-48
2024/03/11 07:33:14;;;;;;;0.30;0.20;;;;;;;10.17;100.00;98769.75;5051877;28;20451;-48
2024/03/11 07:35:43;;;;;;;0.30;0.20;;;;;;;10.21;100.00;98768.66;5052207;28;20443;-49
2024/03/11 07:38:11;;;;;;;0.30;0.20;;;;;;;10.17;100.00;98775.91;5052059;28;20574;-48
2024/03/11 07:40:38;;;;;;;0.30;0.20;;;;;;;10.23;100.00;98780.94;5052057;28;20485;-48
2024/03/11 07:43:07;;;;;;;0.30;0.20;;;;;;;10.20;100.00;98780.22;5051871;28;20447;-48
2024/03/11 07:45:35;;;;;;;0.30;0.20;;;;;;;10.21;100.00;98781.94;5051804;28;20457;-47
2024/03/11 07:48:02;;;;;;;0.30;0.20;;;;;;;10.20;100.00;98794.34;5051798;28;20446;-48
2024/03/11 07:50:28;;;;;;;0.30;0.20;;;;;;;10.22;100.00;98795.16;5051687;28;20471;-48
2024/03/11 07:52:55;;;;;;;0.30;0.20;;;;;;;10.27;100.00;98797.56;5051802;28;20453;-49
2024/03/11 07:55:23;;;;;;;0.30;0.20;;;;;;;10.23;100.00;98799.53;5051762;28;20451;-48
2024/03/11 07:57:53;;;;;;;0.30;0.20;;;;;;;10.27;100.00;98806.38;5051711;28;20571;-49
2024/03/11 08:00:22;;;;;;;0.30;0.20;;;;;;;10.26;100.00;98801.16;5055272;28;20475;-48
2024/03/11 08:02:49;;;;;;;0.30;0.20;;;;;;;10.48;100.00;98815.06;5055966;28;20542;-48
2024/03/11 08:05:17;;;;;;;0.30;0.20;;;;;;;10.35;100.00;98822.81;5055669;28;20453;-48
2024/03/11 08:07:45;;;;;;;0.30;0.20;;;;;;;10.30;100.00;98823.97;5055555;28;20458;-48
2024/03/11 08:10:13;;;;;;;0.30;0.20;;;;;;;10.41;100.00;98826.94;5055410;28;20473;-48
2024/03/11 08:12:42;;;;;;;0.30;0.20;;;;;;;10.55;100.00;98835.06;5055327;28;20911;-49
2024/03/11 08:15:13;;;;;;;0.30;0.20;;;;;;;10.52;100.00;98837.00;5055526;28;20538;-48
2024/03/11 08:17:42;;;;;;;0.30;0.20;;;;;;;10.45;100.00;98840.94;5055483;28;20496;-48
2024/03/11 08:20:15;;;;;;;0.30;0.20;;;;;;;10.49;100.00;98843.34;5055143;28;20474;-48
2024/03/11 08:22:47;;;;;;;0.30;0.20;;;;;;;10.80;100.00;98839.94;5055349;28;20538;-49
2024/03/11 08:25:15;;;;;;;0.30;0.20;;;;;;;10.58;100.00;98848.19;5054938;28;20913;-48
2024/03/11 08:27:42;;;;;;;0.30;0.20;;;;;;;10.66;100.00;98856.59;5055418;28;20488;-48
2024/03/11 08:30:10;;;;;;;0.30;0.20;;;;;;;10.56;100.00;98860.69;5055072;28;20474;-49
2024/03/11 08:32:37;;;;;;;0.30;0.20;;;;;;;10.59;100.00;98857.88;5037408;28;20447;-48
2024/03/11 08:35:04;;;;;;;0.30;0.20;;;;;;;10.63;100.00;98874.50;5055042;28;20450;-48
2024/03/11 08:37:30;;;;;;;0.30;0.20;;;;;;;10.56;100.00;98873.13;5054822;28;20525;-49
2024/03/11 08:39:57;;;;;;;0.30;0.20;;;;;;;10.68;100.00;98877.78;5054811;28;20978;-48
2024/03/11 08:42:23;;;;;;;0.30;0.20;;;;;;;10.70;100.00;98872.41;5055070;28;20500;-48
2024/03/11 08:44:53;;;;;;;0.30;0.20;;;;;;;10.73;100.00;98880.22;5054979;28;20458;-48
2024/03/11 08:47:20;;;;;;;0.30;0.20;;;;;;;10.86;100.00;98881.31;5054846;28;20818;-48
2024/03/11 08:49:46;;;;;;;0.30;0.20;;;;;;;10.95;100.00;98886.97;5054630;28;20471;-49
2024/03/11 08:52:13;;;;;;;0.30;0.20;;;;;;;10.92;100.00;98884.47;5054777;28;20451;-47
2024/03/11 08:54:40;;;;;;;0.30;0.20;;;;;;;11.03;100.00;98894.56;5054704;28;20454;-47
2024/03/11 08:57:12;;;;;;;0.40;0.40;;;;;;;10.90;99.95;98901.47;5054644;28;20563;-47
2024/03/11 08:59:39;;;;;;;3.70;1.80;;;;;;;10.95;100.00;98904.72;5054315;28;20533;-47
2024/03/11 09:02:09;;;;;;;0.30;0.20;;;;;;;11.14;99.72;98907.28;5054550;28;20541;-47
2024/03/11 09:04:36;;;;;;;0.30;0.20;;;;;;;11.28;99.67;98902.09;5054383;28;20537;-47
2024/03/11 09:07:04;;;;;;;0.30;0.20;;;;;;;11.16;98.91;98908.91;5054804;28;21239;-47
2024/03/11 09:09:31;;;;;;;0.30;0.20;;;;;;;11.12;99.83;98914.50;5041142;28;20474;-46
2024/03/11 09:11:58;;;;;;;0.30;0.20;;;;;;;11.15;100.00;98919.66;5053678;28;20485;-49
2024/03/11 09:14:25;;;;;;;0.30;0.20;;;;;;;11.53;98.88;98926.44;5054363;28;20817;-49
2024/03/11 09:16:55;;;;;;;0.30;0.20;;;;;;;11.43;97.98;98924.34;5036289;28;20891;-48
2024/03/11 09:19:23;;;;;;;0.30;0.20;;;;;;;11.27;97.25;98934.97;5054023;28;20814;-48
2024/03/11 09:21:51;;;;;;;0.30;0.20;;;;;;;11.31;96.44;98933.84;5054242;28;20485;-50
2024/03/11 09:24:18;;;;;;;0.30;0.20;;;;;;;11.35;96.88;98937.19;5054230;28;20450;-49
2024/03/11 09:26:45;;;;;;;0.30;0.20;;;;;;;11.24;95.98;98940.44;5053903;28;20973;-48
2024/03/11 09:29:11;;;;;;;0.30;0.20;;;;;;;11.24;96.19;98943.97;5053996;28;20477;-48
2024/03/11 09:31:39;;;;;;;0.30;0.20;;;;;;;11.21;96.57;98952.09;5053900;28;20442;-48
2024/03/11 09:34:07;;;;;;;0.30;0.20;;;;;;;11.28;96.68;98942.84;5054145;28;20450;-48
2024/03/11 09:36:35;;;;;;;0.30;0.20;;;;;;;11.37;95.79;98951.25;5054057;28;20450;-48
2024/03/11 09:39:05;;;;;;;0.30;0.20;;;;;;;11.45;94.39;98952.59;5053896;28;20471;-48
2024/03/11 09:41:39;;;;;;;0.30;0.20;;;;;;;11.36;95.12;98955.72;5053916;28;20451;-49
2024/03/11 09:44:24;;;;;;;0.30;0.20;;;;;;;11.36;95.80;98970.84;5053616;28;20545;-49
2024/03/11 09:46:51;;;;;;;0.30;0.20;;;;;;;11.40;95.55;98970.59;5053759;28;20541;-48
2024/03/11 09:49:19;;;;;;;0.30;0.20;;;;;;;11.44;94.04;98971.28;5053316;28;20473;-48
2024/03/11 09:51:47;;;;;;;0.30;0.20;;;;;;;11.63;93.57;98974.69;5053433;28;20454;-48
2024/03/11 09:54:16;;;;;;;0.30;0.20;;;;;;;11.72;94.19;98978.66;5053297;28;20465;-48
2024/03/11 09:56:47;;;;;;;0.30;0.20;;;;;;;11.97;94.80;98986.19;5052952;28;20449;-49
2024/03/11 09:59:24;;;;;;;0.30;0.20;;;;;;;11.81;92.40;98987.03;5053576;28;20547;-51
2024/03/11 10:01:52;;;;;;;0.30;0.20;;;;;;;12.06;92.50;98981.22;5045721;28;20806;-51
2024/03/11 10:04:23;;;;;;;0.30;0.20;;;;;;;12.14;90.88;98988.78;5050961;28;20453;-51
2024/03/11 10:06:57;;;;;;;0.30;0.20;;;;;;;12.15;91.00;98994.00;5053626;28;20474;-51
2024/03/11 10:09:25;;;;;;;0.30;0.20;;;;;;;12.27;92.04;98997.81;5053096;28;20470;-51
2024/03/11 10:12:08;;;;;;;0.30;0.20;;;;;;;12.41;90.04;99000.53;5053128;28;20457;-51
2024/03/11 10:14:38;;;;;;;0.30;0.20;;;;;;;12.11;90.05;99000.47;5053339;28;20447;-51
2024/03/11 10:17:34;;;;;;;0.30;0.20;;;;;;;12.24;90.33;99000.66;5053154;28;20544;-51
2024/03/11 10:20:03;;;;;;;0.30;0.20;;;;;;;12.27;90.70;98995.13;5051259;28;20486;-51
2024/03/11 10:22:33;;;;;;;0.30;0.20;;;;;;;12.46;90.16;99008.25;5052209;28;20486;-51
2024/03/11 10:25:04;;;;;;;0.30;0.20;;;;;;;12.35;90.52;99013.38;5052902;28;20442;-51
2024/03/11 10:27:39;;;;;;;0.30;0.20;;;;;;;12.35;89.00;99016.03;5052999;28;20450;-51
2024/03/11 10:30:23;;;;;;;0.30;0.20;;;;;;;12.19;88.29;99012.47;5052680;28;20560;-51
2024/03/11 10:32:56;;;;;;;0.30;0.20;;;;;;;12.24;88.58;99015.78;5053042;28;20513;-51
2024/03/11 10:35:24;;;;;;;0.30;0.20;;;;;;;12.56;88.83;99022.78;5053056;28;20442;-50
2024/03/11 10:37:50;;;;;;;0.30;0.20;;;;;;;12.34;88.39;99019.66;5052686;28;20914;-51
2024/03/11 10:40:18;;;;;;;0.30;0.20;;;;;;;12.46;87.22;99024.25;5052441;28;20463;-50
2024/03/11 10:42:55;;;;;;;0.30;0.20;;;;;;;12.42;87.22;99020.06;5052628;28;20546;-50
2024/03/11 10:45:30;;;;;;;0.30;0.20;;;;;;;12.72;87.36;99026.28;5052637;28;20959;-50
2024/03/11 10:48:02;;;;;;;0.30;0.20;;;;;;;12.63;85.96;99029.50;5052739;28;20481;-50
2024/03/11 10:50:32;;;;;;;0.30;0.20;;;;;;;12.59;85.50;99030.63;5052376;28;20474;-50
2024/03/11 10:53:03;;;;;;;0.30;0.20;;;;;;;12.58;83.73;99028.03;5052205;28;20514;-50
2024/03/11 10:55:32;;;;;;;0.30;0.20;;;;;;;13.03;83.10;99027.19;5052584;28;20508;-50
2024/03/11 10:58:01;;;;;;;0.30;0.20;;;;;;;13.34;83.26;99028.94;5052442;28;20487;-51
2024/03/11 11:00:34;;;;;;;0.30;0.20;;;;;;;13.22;82.50;99030.50;5052148;28;20902;-50
2024/03/11 11:03:08;;;;;;;0.30;0.20;;;;;;;13.48;81.36;99028.94;5052487;28;20443;-50
2024/03/11 11:05:50;;;;;;;0.30;0.20;;;;;;;13.33;80.30;99037.88;5052251;28;20451;-51
2024/03/11 11:08:22;;;;;;;0.30;0.20;;;;;;;13.44;80.97;99030.09;5052511;28;20497;-50
2024/03/11 11:10:51;;;;;;;0.30;0.20;;;;;;;13.54;78.78;99035.72;5052422;28;20485;-50
2024/03/11 11:13:23;;;;;;;0.30;0.20;;;;;;;13.67;77.56;99036.69;5052270;28;20534;-50
2024/03/11 11:15:50;;;;;;;0.30;0.20;;;;;;;13.93;78.52;99033.25;5052121;28;20450;-50
2024/03/11 11:18:18;;;;;;;0.30;0.20;;;;;;;13.83;75.19;99040.13;5051972;28;20493;-50
2024/03/11 11:20:49;;;;;;;0.30;0.20;;;;;;;14.07;75.02;99036.88;5052258;28;20451;-51
2024/03/11 11:23:27;;;;;;;0.30;0.20;;;;;;;14.42;74.00;99046.19;5052250;28;20446;-51
2024/03/11 11:25:56;;;;;;;0.30;0.20;;;;;;;14.72;72.35;99051.41;5051956;28;20446;-50
2024/03/11 11:28:37;;;;;;;0.30;0.20;;;;;;;14.27;73.11;99051.69;5051884;28;20478;-50
2024/03/11 11:31:14;;;;;;;0.30;0.20;;;;;;;14.29;71.61;99053.28;5052313;28;20453;-51
2024/03/11 11:33:58;;;;;;;0.30;0.20;;;;;;;14.46;69.97;99049.56;5052979;28;20936;-50
2024/03/11 11:36:39;;;;;;;0.30;0.20;;;;;;;14.25;69.17;99049.06;5056148;28;20446;-51